SondeTracker

Meteorological Radiosondes Database

Operations

Sounding was ended - last measurement: 2022-12-07 14:18:37z

MAP
About Radiosonde

Number: T4320398

Launch Site: Cahersiveen (IE)

Type: RS41-SG

AUX: NO

Frequency: 405.30 MHz

Max Speed: 165 km/h at 32733 m

Average Speed: 45.78 km/h

Max Altitude: 32733 m

Average Ascent Speed: 5.39 m/s

Average Descent Speed: 6.36 m/s

Status: LOST

Status Changes
Launch Site Type AUX Frequency Status Finder Landing Point Description Changes made by
MHz LOST 0, 0 AUTO STATUS: Probably lost in the water [BOT]AUTO-STATUS - 2022-12-07 15:20:56z
APRS Statistics

Received Frames: 254

First Frame [UTC]: 2022-12-07 11:23:21z

Last Frame [UTC]: 2022-12-07 14:18:37z

Receivers: EI6HKB-11

Flight Time: 02:55:16 h

Distance From First Measurement: 111.15 km

Nearest City: Skibbereen (IE) [79.06 km]

Nearest Hunter: EI6HKB [77.75 km]

Ground Altitude: -123 m

Distance from QTH: 0.00 km

APRS Data
Receiver Number Date/Time [UTC] φ λ Course [°] Speed [km/h] Altitude [m] Description
EI6HKB-11T43203982022-12-07 14:18:3750.9547-9.86875165352361Clb=-2.3m/s 405.30MHz Type=RS41-SG Aux[O3] BK=Timed(071318h) RS41Tracker 1.17
EI6HKB-11T43203982022-12-07 14:18:0650.9571-9.8686168352435Clb=-2.4m/s 405.30MHz Type=RS41-SG Aux[O3] BK=Timed(071318h) RS41Tracker 1.17
EI6HKB-11T43203982022-12-07 14:17:3450.9593-9.86863153282513Clb=-2.7m/s 405.30MHz Type=RS41-SG Aux[O3] BK=Timed(071318h) RS41Tracker 1.17
EI6HKB-11T43203982022-12-07 14:17:0350.9614-9.86914183372590Clb=-2.7m/s 405.30MHz Type=RS41-SG Aux[O3] BK=Timed(071318h) RS41Tracker 1.17
EI6HKB-11T43203982022-12-07 14:16:4350.9625-9.86905158202640Clb=-2.6m/s 405.30MHz Type=RS41-SG Aux[O3] BK=Timed(071409h) RS41Tracker 1.17
EI6HKB-11T43203982022-12-07 14:16:2350.964-9.86949196282688Clb=-2.5m/s 405.30MHz Type=RS41-SG Aux[O3] BK=Timed(071409h) RS41Tracker 1.17
EI6HKB-11T43203982022-12-07 14:16:0350.9651-9.86982172352738Clb=-2.7m/s 405.30MHz Type=RS41-SG Aux[O3] BK=Timed(071500h) RS41Tracker 1.17
EI6HKB-11T43203982022-12-07 14:15:4350.9661-9.86975144202787Clb=-2.4m/s 405.30MHz Type=RS41-SG Aux[O3] BK=Timed(071500h) RS41Tracker 1.17
EI6HKB-11T43203982022-12-07 14:15:2350.9675-9.87008187262836Clb=-2.2m/s 405.30MHz Type=RS41-SG Aux[O3] BK=Timed(071500h) RS41Tracker 1.17
EI6HKB-11T43203982022-12-07 14:15:0350.9685-9.87049171332882Clb=-2.4m/s 405.30MHz Type=RS41-SG Aux[O3] BK=Timed(071551h) RS41Tracker 1.17
EI6HKB-11T43203982022-12-07 14:14:4350.9695-9.87069143282929Clb=-2.6m/s 405.30MHz Type=RS41-SG Aux[O3] BK=Timed(071551h) RS41Tracker 1.17
EI6HKB-11T43203982022-12-07 14:14:2350.9705-9.87112137242976Clb=-2.5m/s 405.30MHz Type=RS41-SG Aux[O3] BK=Timed(071642h) RS41Tracker 1.17
EI6HKB-11T43203982022-12-07 14:14:0450.9716-9.87162141133020Clb=-2.3m/s 405.30MHz Type=RS41-SG Aux[O3] BK=Timed(071642h) RS41Tracker 1.17
EI6HKB-11T43203982022-12-07 14:13:4450.9727-9.87247186193066Clb=-2.6m/s 405.30MHz Type=RS41-SG Aux[O3] BK=Timed(071642h) RS41Tracker 1.17
EI6HKB-11T43203982022-12-07 14:13:2450.9736-9.87336177283111Clb=-2.4m/s 405.30MHz Type=RS41-SG Aux[O3] BK=Timed(071733h) RS41Tracker 1.17
EI6HKB-11T43203982022-12-07 14:13:0450.9744-9.87413142283157Clb=-2.5m/s 405.30MHz Type=RS41-SG Aux[O3] BK=Timed(071733h) RS41Tracker 1.17
EI6HKB-11T43203982022-12-07 14:12:4450.9754-9.87469126153204Clb=-2.6m/s 405.30MHz Type=RS41-SG Aux[O3] BK=Timed(071824h) RS41Tracker 1.17
EI6HKB-11T43203982022-12-07 14:12:2450.9763-9.87596160303252Clb=-2.5m/s 405.30MHz Type=RS41-SG Aux[O3] BK=Timed(071824h) RS41Tracker 1.17
EI6HKB-11T43203982022-12-07 14:12:0450.9771-9.87656139283299Clb=-2.3m/s 405.30MHz Type=RS41-SG Aux[O3] BK=Timed(071824h) RS41Tracker 1.17
EI6HKB-11T43203982022-12-07 14:11:4450.9781-9.87701137243347Clb=-2.3m/s 405.30MHz Type=RS41-SG Aux[O3] BK=Timed(071915h) RS41Tracker 1.17
EI6HKB-11T43203982022-12-07 14:11:2450.9793-9.87751137173392Clb=-2.3m/s 405.30MHz Type=RS41-SG Aux[O3] BK=Timed(071915h) RS41Tracker 1.17
EI6HKB-11T43203982022-12-07 14:11:0450.9807-9.87807190243436Clb=-2.4m/s 405.30MHz Type=RS41-SG Aux[O3] BK=Timed(072006h) RS41Tracker 1.17
EI6HKB-11T43203982022-12-07 14:10:4450.9819-9.87872173373482Clb=-2.2m/s 405.30MHz Type=RS41-SG Aux[O3] BK=Timed(072006h) RS41Tracker 1.17
EI6HKB-11T43203982022-12-07 14:10:2450.9831-9.87872147193527Clb=-2.5m/s 405.30MHz Type=RS41-SG Aux[O3] BK=Timed(072006h) RS41Tracker 1.17
EI6HKB-11T43203982022-12-07 14:09:4450.9859-9.87942197203621Clb=-2.8m/s 405.30MHz Type=RS41-SG Aux[O3] BK=Timed(072057h) RS41Tracker 1.17
EI6HKB-11T43203982022-12-07 14:09:2450.9873-9.87997182353670Clb=-2.7m/s 405.30MHz Type=RS41-SG Aux[O3] BK=Timed(072057h) RS41Tracker 1.17
EI6HKB-11T43203982022-12-07 14:09:0450.9885-9.87972152243720Clb=-2.6m/s 405.30MHz Type=RS41-SG Aux[O3] BK=Timed(072148h) RS41Tracker 1.17
EI6HKB-11T43203982022-12-07 14:08:4450.9901-9.87979190203771Clb=-2.5m/s 405.30MHz Type=RS41-SG Aux[O3] BK=Timed(072148h) RS41Tracker 1.17
EI6HKB-11T43203982022-12-07 14:08:2450.9916-9.87994197243824Clb=-3.1m/s 405.30MHz Type=RS41-SG Aux[O3] BK=Timed(072239h) RS41Tracker 1.17
EI6HKB-11T43203982022-12-07 14:08:0450.9931-9.88034186393876Clb=-2.7m/s 405.30MHz Type=RS41-SG Aux[O3] BK=Timed(072239h) RS41Tracker 1.17
EI6HKB-11T43203982022-12-07 14:07:4450.9945-9.88015153313930Clb=-2.9m/s 405.30MHz Type=RS41-SG Aux[O3] BK=Timed(072239h) RS41Tracker 1.17
EI6HKB-11T43203982022-12-07 14:07:2450.996-9.88013165243983Clb=-2.5m/s 405.30MHz Type=RS41-SG Aux[O3] BK=Timed(072330h) RS41Tracker 1.17
EI6HKB-11T43203982022-12-07 14:07:0450.9977-9.88046196334034Clb=-2.8m/s 405.30MHz Type=RS41-SG Aux[O3] BK=Timed(072330h) RS41Tracker 1.17
EI6HKB-11T43203982022-12-07 14:06:4450.9992-9.88072178434086Clb=-2.7m/s 405.30MHz Type=RS41-SG Aux[O3] BK=Timed(072421h) RS41Tracker 1.17
EI6HKB-11T43203982022-12-07 14:06:0451.0025-9.88127167464191Clb=-3.0m/s 405.30MHz Type=RS41-SG Aux[O3] BK=Timed(072421h) RS41Tracker 1.17
EI6HKB-11T43203982022-12-07 14:05:4451.0042-9.88131153314244Clb=-2.6m/s 405.30MHz Type=RS41-SG Aux[O3] BK=Timed(072512h) RS41Tracker 1.17
EI6HKB-11T43203982022-12-07 14:05:2451.006-9.88173152284297Clb=-2.6m/s 405.30MHz Type=RS41-SG Aux[O3] BK=Timed(072512h) RS41Tracker 1.17
EI6HKB-11T43203982022-12-07 14:05:0451.0078-9.88218154314349Clb=-2.5m/s 405.30MHz Type=RS41-SG Aux[O3] BK=Timed(072603h) RS41Tracker 1.17
EI6HKB-11T43203982022-12-07 14:04:4451.0096-9.88251163284400Clb=-2.7m/s 405.30MHz Type=RS41-SG Aux[O3] BK=Timed(072603h) RS41Tracker 1.17
EI6HKB-11T43203982022-12-07 14:04:2451.0115-9.8829185244450Clb=-2.4m/s 405.30MHz Type=RS41-SG Aux[O3] BK=Timed(072603h) RS41Tracker 1.17
EI6HKB-11T43203982022-12-07 14:04:0451.0133-9.88333190284501Clb=-2.9m/s 405.30MHz Type=RS41-SG Aux[O3] BK=Timed(072654h) RS41Tracker 1.17
EI6HKB-11T43203982022-12-07 14:03:4451.0151-9.88388191354554Clb=-2.7m/s 405.30MHz Type=RS41-SG Aux[O3] BK=Timed(072654h) RS41Tracker 1.17
EI6HKB-11T43203982022-12-07 14:03:2451.017-9.88444189434605Clb=-2.8m/s 405.30MHz Type=RS41-SG Aux[O3] BK=Timed(072745h) RS41Tracker 1.17
EI6HKB-11T43203982022-12-07 14:03:0451.0188-9.88478191394657Clb=-2.5m/s 405.30MHz Type=RS41-SG Aux[O3] BK=Timed(072745h) RS41Tracker 1.17
EI6HKB-11T43203982022-12-07 14:02:4451.0207-9.88527191394709Clb=-2.5m/s 405.30MHz Type=RS41-SG Aux[O3] BK=Timed(072745h) RS41Tracker 1.17
EI6HKB-11T43203982022-12-07 14:02:2451.0227-9.8858187484761Clb=-2.9m/s 405.30MHz Type=RS41-SG Aux[O3] BK=Timed(072836h) RS41Tracker 1.17
EI6HKB-11T43203982022-12-07 14:02:0451.0247-9.88636174524813Clb=-2.7m/s 405.30MHz Type=RS41-SG Aux[O3] BK=Timed(072836h) RS41Tracker 1.17
EI6HKB-11T43203982022-12-07 14:01:4451.0267-9.88667171504865Clb=-2.5m/s 405.30MHz Type=RS41-SG Aux[O3] BK=Timed(072836h) RS41Tracker 1.17
EI6HKB-11T43203982022-12-07 14:01:2451.0285-9.88694163504917Clb=-2.8m/s 405.30MHz Type=RS41-SG Aux[O3] BK=Timed(072927h) RS41Tracker 1.17
EI6HKB-11T43203982022-12-07 14:01:0451.0304-9.88721171504969Clb=-2.7m/s 405.30MHz Type=RS41-SG Aux[O3] BK=Timed(072927h) RS41Tracker 1.17
EI6HKB-11T43203982022-12-07 14:00:4451.0321-9.88752158445021Clb=-2.9m/s 405.30MHz Type=RS41-SG Aux[O3] BK=Timed(073018h) RS41Tracker 1.17
EI6HKB-11T43203982022-12-07 14:00:2451.0339-9.88792155415076Clb=-3.0m/s 405.30MHz Type=RS41-SG Aux[O3] BK=Timed(073018h) RS41Tracker 1.17
EI6HKB-11T43203982022-12-07 14:00:0451.0356-9.88825152355131Clb=-2.8m/s 405.30MHz Type=RS41-SG Aux[O3] BK=Timed(073018h) RS41Tracker 1.17
EI6HKB-11T43203982022-12-07 13:59:4451.0373-9.88853161415187Clb=-3.0m/s 405.30MHz Type=RS41-SG Aux[O3] BK=Timed(073109h) RS41Tracker 1.17
EI6HKB-11T43203982022-12-07 13:59:2451.039-9.8885163375242Clb=-2.6m/s 405.30MHz Type=RS41-SG Aux[O3] BK=Timed(073109h) RS41Tracker 1.17
EI6HKB-11T43203982022-12-07 13:59:0451.0407-9.88803177265299Clb=-3.1m/s 405.30MHz Type=RS41-SG Aux[O3] BK=Timed(073200h) RS41Tracker 1.17
EI6HKB-11T43203982022-12-07 13:58:4451.0428-9.888197525358Clb=-3.1m/s 405.30MHz Type=RS41-SG Aux[O3] BK=Timed(073200h) RS41Tracker 1.17
EI6HKB-11T43203982022-12-07 13:58:2451.0448-9.88742183565417Clb=-3.1m/s 405.30MHz Type=RS41-SG Aux[O3] BK=Timed(073200h) RS41Tracker 1.17
EI6HKB-11T43203982022-12-07 13:58:0451.047-9.88683180575478Clb=-3.2m/s 405.30MHz Type=RS41-SG Aux[O3] BK=Timed(073251h) RS41Tracker 1.17
EI6HKB-11T43203982022-12-07 13:57:4451.0491-9.88637179525539Clb=-3.2m/s 405.30MHz Type=RS41-SG Aux[O3] BK=Timed(073251h) RS41Tracker 1.17
EI6HKB-11T43203982022-12-07 13:57:0451.0529-9.8853188505661Clb=-3.0m/s 405.30MHz Type=RS41-SG Aux[O3] BK=Timed(073342h) RS41Tracker 1.17
EI6HKB-11T43203982022-12-07 13:56:4451.0547-9.88457198525723Clb=-3.2m/s 405.30MHz Type=RS41-SG Aux[O3] BK=Timed(073342h) RS41Tracker 1.17
EI6HKB-11T43203982022-12-07 13:55:4451.0604-9.88205175395906Clb=-3.2m/s 405.30MHz Type=RS41-SG Aux[O3] BK=Timed(073524h) RS41Tracker 1.17
EI6HKB-11T43203982022-12-07 13:55:2451.0624-9.88115181335966Clb=-2.9m/s 405.30MHz Type=RS41-SG Aux[O3] BK=Timed(073524h) RS41Tracker 1.17
EI6HKB-11T43203982022-12-07 13:55:0451.0645-9.88025186316026Clb=-3.0m/s 405.30MHz Type=RS41-SG Aux[O3] BK=Timed(073524h) RS41Tracker 1.17
EI6HKB-11T43203982022-12-07 13:54:2451.0687-9.87844179446148Clb=-3.0m/s 405.30MHz Type=RS41-SG Aux[O3] BK=Timed(073615h) RS41Tracker 1.17
EI6HKB-11T43203982022-12-07 13:54:0451.0709-9.87727185376205Clb=-2.8m/s 405.30MHz Type=RS41-SG Aux[O3] BK=Timed(073706h) RS41Tracker 1.17
EI6HKB-11T43203982022-12-07 13:52:4451.079-9.87256189356443Clb=-3.1m/s 405.30MHz Type=RS41-SG Aux[O3] BK=Timed(073757h) RS41Tracker 1.17
EI6HKB-11T43203982022-12-07 13:52:2451.0811-9.87132196266501Clb=-2.8m/s 405.30MHz Type=RS41-SG Aux[O3] BK=Timed(073757h) RS41Tracker 1.17
EI6HKB-11T43203982022-12-07 13:52:0451.0829-9.87018191286561Clb=-3.1m/s 405.30MHz Type=RS41-SG Aux[O3] BK=Timed(073848h) RS41Tracker 1.17
EI6HKB-11T43203982022-12-07 13:51:4451.0847-9.8692191266619Clb=-2.8m/s 405.30MHz Type=RS41-SG Aux[O3] BK=Timed(073848h) RS41Tracker 1.17
EI6HKB-11T43203982022-12-07 13:50:2451.0922-9.86583173466853Clb=-3.0m/s 405.30MHz Type=RS41-SG Aux[O3] BK=Timed(074030h) RS41Tracker 1.17
EI6HKB-11T43203982022-12-07 13:50:0451.0942-9.86522183526913Clb=-3.1m/s 405.30MHz Type=RS41-SG Aux[O3] BK=Timed(074030h) RS41Tracker 1.17
EI6HKB-11T43203982022-12-07 13:47:4451.1093-9.85848211637339Clb=-3.4m/s 405.30MHz Type=RS41-SG Aux[O3] BK=Timed(074303h) RS41Tracker 1.17
EI6HKB-11T43203982022-12-07 13:47:2451.1116-9.85688221567403Clb=-3.3m/s 405.30MHz Type=RS41-SG Aux[O3] BK=Timed(074303h) RS41Tracker 1.17
EI6HKB-11T43203982022-12-07 13:45:2451.1264-9.84713201697802Clb=-3.2m/s 405.30MHz Type=RS41-SG Aux[O3] BK=Timed(074536h) RS41Tracker 1.17
EI6HKB-11T43203982022-12-07 13:42:0451.1508-9.82765192448449Clb=-3.3m/s 405.30MHz Type=RS41-SG Aux[O3] BK=Timed(074900h) RS41Tracker 1.17
EI6HKB-11T43203982022-12-07 13:39:4451.1667-9.81934201698937Clb=-3.6m/s 405.30MHz Type=RS41-SG Aux[O3] BK=Timed(075042h) RS41Tracker 1.17
EI6HKB-11T43203982022-12-07 13:39:2451.1691-9.8177223549014Clb=-3.7m/s 405.30MHz Type=RS41-SG Aux[O3] BK=Timed(075133h) RS41Tracker 1.17
EI6HKB-11T43203982022-12-07 13:37:4451.1799-9.80991236319382Clb=-3.8m/s 405.30MHz Type=RS41-SG Aux[O3] BK=Timed(075315h) RS41Tracker 1.17
EI6HKB-11T43203982022-12-07 13:37:2451.1817-9.80865176339456Clb=-3.5m/s 405.30MHz Type=RS41-SG Aux[O3] BK=Timed(075315h) RS41Tracker 1.17
EI6HKB-11T43203982022-12-07 13:36:2451.1879-9.80353231529673Clb=-3.0m/s 405.30MHz Type=RS41-SG Aux[O3] BK=Timed(075406h) RS41Tracker 1.17
EI6HKB-11T43203982022-12-07 13:34:4251.1959-9.796322105010038Clb=-3.3m/s 405.30MHz Type=RS41-SG Aux[O3] BK=Timed(075548h) RS41Tracker 1.17
EI6HKB-11T43203982022-12-07 13:34:2251.1973-9.794822294610115Clb=-3.5m/s 405.30MHz Type=RS41-SG Aux[O3] BK=Timed(075639h) RS41Tracker 1.17
EI6HKB-11T43203982022-12-07 13:34:0251.1984-9.793232523010194Clb=-3.9m/s 405.30MHz Type=RS41-SG Aux[O3] BK=Timed(075639h) RS41Tracker 1.17
EI6HKB-11T43203982022-12-07 13:33:4251.1996-9.7922391110271Clb=-3.6m/s 405.30MHz Type=RS41-SG Aux[O3] BK=Timed(075639h) RS41Tracker 1.17
EI6HKB-11T43203982022-12-07 13:33:2251.2009-9.791111623510349Clb=-4.1m/s 405.30MHz Type=RS41-SG Aux[O3] BK=Timed(075730h) RS41Tracker 1.17
EI6HKB-11T43203982022-12-07 13:32:4251.204-9.788842493710506Clb=-3.7m/s 405.30MHz Type=RS41-SG Aux[O3] BK=Timed(075821h) RS41Tracker 1.17
EI6HKB-11T43203982022-12-07 13:32:2251.2052-9.788061523910591Clb=-4.8m/s 405.30MHz Type=RS41-SG Aux[O3] BK=Timed(075821h) RS41Tracker 1.17
EI6HKB-11T43203982022-12-07 13:32:0251.207-9.787342215010677Clb=-3.4m/s 405.30MHz Type=RS41-SG Aux[O3] BK=Timed(075821h) RS41Tracker 1.17
EI6HKB-11T43203982022-12-07 13:31:4251.2089-9.786391613010764Clb=-4.2m/s 405.30MHz Type=RS41-SG Aux[O3] BK=Timed(075912h) RS41Tracker 1.17
EI6HKB-11T43203982022-12-07 13:27:5851.2237-9.781231345611810Clb=-6.0m/s 405.30MHz Type=RS41-SG Aux[O3] BK=Timed(080236h) RS41Tracker 1.17
EI6HKB-11T43203982022-12-07 13:27:3251.2255-9.78191013511938Clb=-7.3m/s 405.30MHz Type=RS41-SG Aux[O3] BK=Timed(080327h) RS41Tracker 1.17
EI6HKB-11T43203982022-12-07 13:27:0651.2273-9.782391163312075Clb=-4.4m/s 405.30MHz Type=RS41-SG Aux[O3] BK=Timed(080327h) RS41Tracker 1.17
EI6HKB-11T43203982022-12-07 13:25:5651.2336-9.780722195412443Clb=-6.6m/s 405.30MHz Type=RS41-SG Aux[O3] BK=Timed(080509h) RS41Tracker 1.17
EI6HKB-11T43203982022-12-07 13:24:3651.2363-9.77906602612924Clb=-6.5m/s 405.30MHz Type=RS41-SG Aux[O3] BK=Timed(080600h) RS41Tracker 1.17
EI6HKB-11T43203982022-12-07 13:24:1651.2379-9.780142084413050Clb=-6.1m/s 405.30MHz Type=RS41-SG Aux[O3] BK=Timed(080651h) RS41Tracker 1.17
EI6HKB-11T43203982022-12-07 13:23:5451.239-9.782021377013197Clb=-7.3m/s 405.30MHz Type=RS41-SG Aux[O3] BK=Timed(080651h) RS41Tracker 1.17
EI6HKB-11T43203982022-12-07 13:23:1451.2419-9.784772115613466Clb=-5.7m/s 405.30MHz Type=RS41-SG Aux[O3] BK=Timed(080742h) RS41Tracker 1.17
EI6HKB-11T43203982022-12-07 13:22:3051.2442-9.78455282613755Clb=-9.4m/s 405.30MHz Type=RS41-SG Aux[O3] BK=Timed(080833h) RS41Tracker 1.17
EI6HKB-11T43203982022-12-07 13:22:1051.2451-9.786251864313898Clb=-7.0m/s 405.30MHz Type=RS41-SG Aux[O3] BK=Timed(080833h) RS41Tracker 1.17
EI6HKB-11T43203982022-12-07 13:21:0051.2498-9.790441166714403Clb=-7.1m/s 405.30MHz Type=RS41-SG Aux[O3] BK=Timed(080924h) RS41Tracker 1.17
EI6HKB-11T43203982022-12-07 13:20:1051.2518-9.79357936114776Clb=-10.2m/s 405.30MHz Type=RS41-SG Aux[O3] BK=Timed(081015h) RS41Tracker 1.17
EI6HKB-11T43203982022-12-07 13:19:4651.2536-9.79519915014956Clb=-8.7m/s 405.30MHz Type=RS41-SG Aux[O3] BK=Timed(081106h) RS41Tracker 1.17
EI6HKB-11T43203982022-12-07 13:19:2051.2557-9.79717995615165Clb=-10.5m/s 405.30MHz Type=RS41-SG Aux[O3] BK=Timed(081106h) RS41Tracker 1.17
EI6HKB-11T43203982022-12-07 13:15:2651.2697-9.814111185917218Clb=-10.1m/s 405.30MHz Type=RS41-SG Aux[O3] BK=Timed(081521h) RS41Tracker 1.17
EI6HKB-11T43203982022-12-07 13:15:0451.2714-9.81487544417440Clb=-10.1m/s 405.30MHz Type=RS41-SG Aux[O3] BK=Timed(081521h) RS41Tracker 1.17
EI6HKB-11T43203982022-12-07 13:14:4451.2729-9.816252315717641Clb=-10.0m/s 405.30MHz Type=RS41-SG Aux[O3] BK=Timed(081612h) RS41Tracker 1.17
EI6HKB-11T43203982022-12-07 13:14:2451.274-9.816861903117804Clb=-7.5m/s 405.30MHz Type=RS41-SG Aux[O3] BK=Timed(081612h) RS41Tracker 1.17
EI6HKB-11T43203982022-12-07 13:14:0451.2752-9.818682282417962Clb=-8.7m/s 405.30MHz Type=RS41-SG Aux[O3] BK=Timed(081703h) RS41Tracker 1.17
EI6HKB-11T43203982022-12-07 13:12:4451.2804-9.824291478018668Clb=-8.9m/s 405.30MHz Type=RS41-SG Aux[O3] BK=Timed(081754h) RS41Tracker 1.17
EI6HKB-11T43203982022-12-07 13:12:2451.2821-9.82592441118860Clb=-9.8m/s 405.30MHz Type=RS41-SG Aux[O3] BK=Timed(081845h) RS41Tracker 1.17
EI6HKB-11T43203982022-12-07 13:12:0451.284-9.825431877419062Clb=-11.0m/s 405.30MHz Type=RS41-SG Aux[O3] BK=Timed(081845h) RS41Tracker 1.17
EI6HKB-11T43203982022-12-07 13:11:2451.2863-9.827451378519508Clb=-11.7m/s 405.30MHz Type=RS41-SG Aux[O3] BK=Timed(081936h) RS41Tracker 1.17
EI6HKB-11T43203982022-12-07 13:10:2251.2901-9.831211738920227Clb=-11.5m/s 405.30MHz Type=RS41-SG Aux[O3] BK=Timed(082118h) RS41Tracker 1.17
EI6HKB-11T43203982022-12-07 13:10:0251.2917-9.833263482420475Clb=-12.9m/s 405.30MHz Type=RS41-SG Aux[O3] BK=Timed(082118h) RS41Tracker 1.17
EI6HKB-11T43203982022-12-07 13:09:2251.2949-9.833872336520975Clb=-12.8m/s 405.30MHz Type=RS41-SG Aux[O3] BK=Timed(082118h) RS41Tracker 1.17
EI6HKB-11T43203982022-12-07 13:08:4251.2982-9.835471708521494Clb=-12.6m/s 405.30MHz Type=RS41-SG Aux[O3] BK=Timed(082209h) RS41Tracker 1.17
EI6HKB-11T43203982022-12-07 13:08:2251.2995-9.837823583121764Clb=-14.7m/s 405.30MHz Type=RS41-SG Aux[O3] BK=Timed(082209h) RS41Tracker 1.17
EI6HKB-11T43203982022-12-07 13:08:0251.3009-9.837991247822051Clb=-14.9m/s 405.30MHz Type=RS41-SG Aux[O3] BK=Timed(082300h) RS41Tracker 1.17
EI6HKB-11T43203982022-12-07 13:07:4251.3015-9.838812077022356Clb=-15.2m/s 405.30MHz Type=RS41-SG Aux[O3] BK=Timed(082300h) RS41Tracker 1.17
EI6HKB-11T43203982022-12-07 13:07:0251.3063-9.841914511522965Clb=-15.8m/s 405.30MHz Type=RS41-SG Aux[O3] BK=Timed(082351h) RS41Tracker 1.17
EI6HKB-11T43203982022-12-07 13:06:4051.3087-9.843062058923302Clb=-18.3m/s 405.30MHz Type=RS41-SG Aux[O3] BK=Timed(082351h) RS41Tracker 1.17
EI6HKB-11T43203982022-12-07 13:06:2051.3114-9.84497423723637Clb=-15.3m/s 405.30MHz Type=RS41-SG Aux[O3] BK=Timed(082442h) RS41Tracker 1.17
EI6HKB-11T43203982022-12-07 13:06:0051.3133-9.8465713710723983Clb=-18.5m/s 405.30MHz Type=RS41-SG Aux[O3] BK=Timed(082442h) RS41Tracker 1.17
EI6HKB-11T43203982022-12-07 13:05:4051.3151-9.847972059624347Clb=-18.6m/s 405.30MHz Type=RS41-SG Aux[O3] BK=Timed(082442h) RS41Tracker 1.17
EI6HKB-11T43203982022-12-07 13:05:2051.3169-9.849893102824736Clb=-19.3m/s 405.30MHz Type=RS41-SG Aux[O3] BK=Timed(082533h) RS41Tracker 1.17
EI6HKB-11T43203982022-12-07 13:03:4051.3259-9.86688675226809Clb=-21.7m/s 405.30MHz Type=RS41-SG Aux[O3] BK=Timed(082715h) RS41Tracker 1.17
EI6HKB-11T43203982022-12-07 13:02:2051.335-9.879951428928383Clb=-24.0m/s 405.30MHz Type=RS41-SG Aux[O3] BK=Timed(082806h) RS41Tracker 1.17
EI6HKB-11T43203982022-12-07 13:02:0051.339-9.8843116614828957Clb=-29.5m/s 405.30MHz Type=RS41-SG Aux[O3] BK=Timed(082857h) RS41Tracker 1.17
EI6HKB-11T43203982022-12-07 13:01:3851.3429-9.89153945629530Clb=-19.6m/s 405.30MHz Type=RS41-SG Aux[O3] BK=Timed(082857h) RS41Tracker 1.17
EI6HKB-11T43203982022-12-07 13:01:1851.3451-9.895981038130032Clb=-27.9m/s 405.30MHz Type=RS41-SG Aux[O3] BK=Timed(082948h) RS41Tracker 1.17
EI6HKB-11T43203982022-12-07 13:00:3851.3522-9.9112810911331312Clb=-30.6m/s 405.30MHz Type=RS41-SG Aux[O3] BK=Timed(082948h) RS41Tracker 1.17
EI6HKB-11T43203982022-12-07 12:58:5851.3707-9.9540112116532733Clb=2.2m/s 405.30MHz Type=RS41-SG Aux[O3] BK=Timed(083000h) RS41Tracker 1.17
EI6HKB-11T43203982022-12-07 12:58:3851.3741-9.962611814832636Clb=8.4m/s 405.30MHz Type=RS41-SG Aux[O3] BK=Timed(083000h) RS41Tracker 1.17
EI6HKB-11T43203982022-12-07 12:57:3651.3835-9.9921513213532324Clb=9.0m/s 405.30MHz Type=RS41-SG Aux[O3] BK=Timed(083000h) RS41Tracker 1.17
EI6HKB-11T43203982022-12-07 12:56:5651.3903-10.009612311732088Clb=7.9m/s 405.30MHz Type=RS41-SG Aux[O3] BK=Timed(083000h) RS41Tracker 1.17
EI6HKB-11T43203982022-12-07 12:56:1651.398-10.025113112631843Clb=6.8m/s 405.30MHz Type=RS41-SG Aux[O3] BK=Timed(083000h) RS41Tracker 1.17
EI6HKB-11T43203982022-12-07 12:54:3651.4177-10.070310910031177Clb=5.4m/s 405.30MHz Type=RS41-SG Aux[O3] BK=Timed(083000h) RS41Tracker 1.17
EI6HKB-11T43203982022-12-07 12:54:1651.4212-10.078912211331052Clb=8.5m/s 405.30MHz Type=RS41-SG Aux[O3] BK=Timed(083000h) RS41Tracker 1.17
EI6HKB-11T43203982022-12-07 12:52:5651.4335-10.106913713930557Clb=8.5m/s 405.30MHz Type=RS41-SG Aux[O3] BK=Timed(083000h) RS41Tracker 1.17
EI6HKB-11T43203982022-12-07 12:52:3651.437-10.113114010230442Clb=3.7m/s 405.30MHz Type=RS41-SG Aux[O3] BK=Timed(083000h) RS41Tracker 1.17
EI6HKB-11T43203982022-12-07 12:52:1651.4408-10.12011406330310Clb=10.1m/s 405.30MHz Type=RS41-SG Aux[O3] BK=Timed(083000h) RS41Tracker 1.17
EI6HKB-11T43203982022-12-07 12:51:5651.4438-10.12712111330181Clb=5.8m/s 405.30MHz Type=RS41-SG Aux[O3] BK=Timed(083000h) RS41Tracker 1.17
EI6HKB-11T43203982022-12-07 12:50:3651.454-10.15391087229640Clb=6.3m/s 405.30MHz Type=RS41-SG Aux[O3] BK=Timed(083000h) RS41Tracker 1.17
EI6HKB-11T43203982022-12-07 12:49:3451.4645-10.170715310229214Clb=4.1m/s 405.30MHz Type=RS41-SG Aux[O3] BK=Timed(083000h) RS41Tracker 1.17
EI6HKB-11T43203982022-12-07 12:48:3451.4755-10.184214212428818Clb=4.1m/s 405.30MHz Type=RS41-SG Aux[O3] BK=Timed(083000h) RS41Tracker 1.17
EI6HKB-11T43203982022-12-07 12:48:1451.4796-10.188413513928692Clb=8.4m/s 405.30MHz Type=RS41-SG Aux[O3] BK=Timed(083000h) RS41Tracker 1.17
EI6HKB-11T43203982022-12-07 12:44:3451.5208-10.22421725427338Clb=5.7m/s 405.30MHz Type=RS41-SG Aux[O3] BK=Timed(083000h) RS41Tracker 1.17
EI6HKB-11T43203982022-12-07 12:42:1451.5402-10.24171396326449Clb=5.3m/s 405.30MHz Type=RS41-SG Aux[O3] BK=Timed(083000h) RS41Tracker 1.17
EI6HKB-11T43203982022-12-07 12:41:1451.5478-10.25161107226075Clb=8.3m/s 405.30MHz Type=RS41-SG Aux[O3] BK=Timed(083000h) RS41Tracker 1.17
EI6HKB-11T43203982022-12-07 12:40:5451.5495-10.25611044425948Clb=7.5m/s 405.30MHz Type=RS41-SG Aux[O3] BK=Timed(083000h) RS41Tracker 1.17
EI6HKB-11T43203982022-12-07 12:38:5451.56-10.27341714425197Clb=4.1m/s 405.30MHz Type=RS41-SG Aux[O3] BK=Timed(083000h) RS41Tracker 1.17
EI6HKB-11T43203982022-12-07 12:38:3451.5615-10.27671382825077Clb=3.8m/s 405.30MHz Type=RS41-SG Aux[O3] BK=Timed(083000h) RS41Tracker 1.17
EI6HKB-11T43203982022-12-07 12:37:5451.5629-10.2827591324837Clb=4.4m/s 405.30MHz Type=RS41-SG Aux[O3] BK=Timed(083000h) RS41Tracker 1.17
EI6HKB-11T43203982022-12-07 12:35:3451.5739-10.29371564423983Clb=5.2m/s 405.30MHz Type=RS41-SG Aux[O3] BK=Timed(083000h) RS41Tracker 1.17
EI6HKB-11T43203982022-12-07 12:34:3051.5787-10.30021355923584Clb=5.5m/s 405.30MHz Type=RS41-SG Aux[O3] BK=Timed(083000h) RS41Tracker 1.17
EI6HKB-11T43203982022-12-07 12:32:2851.5943-10.30821366122919Clb=4.2m/s 405.30MHz Type=RS41-SG Aux[O3] BK=Timed(083000h) RS41Tracker 1.17
EI6HKB-11T43203982022-12-07 12:32:0851.5964-10.31031614622815Clb=6.8m/s 405.30MHz Type=RS41-SG Aux[O3] BK=Timed(083000h) RS41Tracker 1.17
EI6HKB-11T43203982022-12-07 12:31:4851.5989-10.3121644322700Clb=5.7m/s 405.30MHz Type=RS41-SG Aux[O3] BK=Timed(083000h) RS41Tracker 1.17
EI6HKB-11T43203982022-12-07 12:31:2851.6006-10.3141404422587Clb=6.4m/s 405.30MHz Type=RS41-SG Aux[O3] BK=Timed(083000h) RS41Tracker 1.17
EI6HKB-11T43203982022-12-07 12:30:4851.6035-10.31651433522354Clb=5.0m/s 405.30MHz Type=RS41-SG Aux[O3] BK=Timed(083000h) RS41Tracker 1.17
EI6HKB-11T43203982022-12-07 12:30:0851.6061-10.31761882222125Clb=5.0m/s 405.30MHz Type=RS41-SG Aux[O3] BK=Timed(083000h) RS41Tracker 1.17
EI6HKB-11T43203982022-12-07 12:29:4851.6076-10.31751872422016Clb=5.8m/s 405.30MHz Type=RS41-SG Aux[O3] BK=Timed(083000h) RS41Tracker 1.17
EI6HKB-11T43203982022-12-07 12:29:2851.6092-10.31771724421907Clb=4.2m/s 405.30MHz Type=RS41-SG Aux[O3] BK=Timed(083000h) RS41Tracker 1.17
EI6HKB-11T43203982022-12-07 12:29:0851.6111-10.31811585621798Clb=4.8m/s 405.30MHz Type=RS41-SG Aux[O3] BK=Timed(083000h) RS41Tracker 1.17
EI6HKB-11T43203982022-12-07 12:27:2851.6202-10.32381454621264Clb=6.0m/s 405.30MHz Type=RS41-SG Aux[O3] BK=Timed(083000h) RS41Tracker 1.17
EI6HKB-11T43203982022-12-07 12:27:0851.6224-10.32491445621157Clb=5.1m/s 405.30MHz Type=RS41-SG Aux[O3] BK=Timed(083000h) RS41Tracker 1.17
EI6HKB-11T43203982022-12-07 12:26:4851.6245-10.32581733521054Clb=6.7m/s 405.30MHz Type=RS41-SG Aux[O3] BK=Timed(083000h) RS41Tracker 1.17
EI6HKB-11T43203982022-12-07 12:25:4251.6317-10.3281765020696Clb=6.8m/s 405.30MHz Type=RS41-SG Aux[O3] BK=Timed(083000h) RS41Tracker 1.17
EI6HKB-11T43203982022-12-07 12:25:0251.6352-10.33011302820469Clb=6.0m/s 405.30MHz Type=RS41-SG Aux[O3] BK=Timed(083000h) RS41Tracker 1.17
EI6HKB-11T43203982022-12-07 12:24:4051.6368-10.33151723920354Clb=5.2m/s 405.30MHz Type=RS41-SG Aux[O3] BK=Timed(083000h) RS41Tracker 1.17
EI6HKB-11T43203982022-12-07 12:24:2051.6385-10.33271794120247Clb=5.5m/s 405.30MHz Type=RS41-SG Aux[O3] BK=Timed(083000h) RS41Tracker 1.17
EI6HKB-11T43203982022-12-07 12:24:0051.6398-10.33361302420139Clb=5.2m/s 405.30MHz Type=RS41-SG Aux[O3] BK=Timed(083000h) RS41Tracker 1.17
EI6HKB-11T43203982022-12-07 12:21:4251.647-10.33961582819388Clb=5.7m/s 405.30MHz Type=RS41-SG Aux[O3] BK=Timed(083000h) RS41Tracker 1.17
EI6HKB-11T43203982022-12-07 12:18:0651.6602-10.34761301518296Clb=4.8m/s 405.30MHz Type=RS41-SG Aux[O3] BK=Timed(083000h) RS41Tracker 1.17
EI6HKB-11T43203982022-12-07 12:17:4251.6613-10.34931312818181Clb=4.2m/s 405.30MHz Type=RS41-SG Aux[O3] BK=Timed(083000h) RS41Tracker 1.17
EI6HKB-11T43203982022-12-07 12:17:0251.6635-10.35221324317980Clb=6.2m/s 405.30MHz Type=RS41-SG Aux[O3] BK=Timed(083000h) RS41Tracker 1.17
EI6HKB-11T43203982022-12-07 12:16:4251.6647-10.3541143317876Clb=6.7m/s 405.30MHz Type=RS41-SG Aux[O3] BK=Timed(083000h) RS41Tracker 1.17
EI6HKB-11T43203982022-12-07 12:16:2251.6656-10.35561893117775Clb=2.8m/s 405.30MHz Type=RS41-SG Aux[O3] BK=Timed(083000h) RS41Tracker 1.17
EI6HKB-11T43203982022-12-07 12:15:5851.6665-10.35671493017582Clb=5.2m/s 405.30MHz Type=RS41-SG Aux[O3] BK=Timed(083000h) RS41Tracker 1.17
EI6HKB-11T43203982022-12-07 12:15:1851.6697-10.3581302217353Clb=5.3m/s 405.30MHz Type=RS41-SG Aux[O3] BK=Timed(083000h) RS41Tracker 1.17
EI6HKB-11T43203982022-12-07 12:14:1451.6747-10.36051703717025Clb=5.5m/s 405.30MHz Type=RS41-SG Aux[O3] BK=Timed(083000h) RS41Tracker 1.17
EI6HKB-11T43203982022-12-07 12:13:5451.6764-10.36131663016929Clb=5.9m/s 405.30MHz Type=RS41-SG Aux[O3] BK=Timed(083000h) RS41Tracker 1.17
EI6HKB-11T43203982022-12-07 12:13:3451.6779-10.36241592216832Clb=5.5m/s 405.30MHz Type=RS41-SG Aux[O3] BK=Timed(083000h) RS41Tracker 1.17
EI6HKB-11T43203982022-12-07 12:12:5251.6821-10.36411574616621Clb=5.6m/s 405.30MHz Type=RS41-SG Aux[O3] BK=Timed(083000h) RS41Tracker 1.17
EI6HKB-11T43203982022-12-07 12:10:5251.6919-10.3731592816015Clb=5.7m/s 405.30MHz Type=RS41-SG Aux[O3] BK=Timed(083000h) RS41Tracker 1.17
EI6HKB-11T43203982022-12-07 12:10:1851.6941-10.3751632015847Clb=5.9m/s 405.30MHz Type=RS41-SG Aux[O3] BK=Timed(083000h) RS41Tracker 1.17
EI6HKB-11T43203982022-12-07 12:08:3851.6987-10.3817982415349Clb=3.6m/s 405.30MHz Type=RS41-SG Aux[O3] BK=Timed(083000h) RS41Tracker 1.17
EI6HKB-11T43203982022-12-07 12:06:5851.7032-10.38971513514874Clb=5.2m/s 405.30MHz Type=RS41-SG Aux[O3] BK=Timed(083000h) RS41Tracker 1.17
EI6HKB-11T43203982022-12-07 12:06:3851.7042-10.39151333514778Clb=3.9m/s 405.30MHz Type=RS41-SG Aux[O3] BK=Timed(083000h) RS41Tracker 1.17
EI6HKB-11T43203982022-12-07 12:06:1851.7048-10.39331081714682Clb=4.0m/s 405.30MHz Type=RS41-SG Aux[O3] BK=Timed(083000h) RS41Tracker 1.17
EI6HKB-11T43203982022-12-07 12:05:5851.7054-10.39461141714590Clb=3.8m/s 405.30MHz Type=RS41-SG Aux[O3] BK=Timed(083000h) RS41Tracker 1.17
EI6HKB-11T43203982022-12-07 12:03:5851.7124-10.40141543914019Clb=3.0m/s 405.30MHz Type=RS41-SG Aux[O3] BK=Timed(083000h) RS41Tracker 1.17
EI6HKB-11T43203982022-12-07 12:03:1851.7137-10.4028319713762Clb=10.3m/s 405.30MHz Type=RS41-SG Aux[O3] BK=Timed(083000h) RS41Tracker 1.17
EI6HKB-11T43203982022-12-07 12:01:5651.7196-10.40511392613323Clb=4.6m/s 405.30MHz Type=RS41-SG Aux[O3] BK=Timed(083000h) RS41Tracker 1.17
EI6HKB-11T43203982022-12-07 12:01:3651.7205-10.40611423513232Clb=5.4m/s 405.30MHz Type=RS41-SG Aux[O3] BK=Timed(083000h) RS41Tracker 1.17
EI6HKB-11T43203982022-12-07 12:01:1651.7215-10.4071623313138Clb=5.6m/s 405.30MHz Type=RS41-SG Aux[O3] BK=Timed(083000h) RS41Tracker 1.17
EI6HKB-11T43203982022-12-07 12:00:5651.7227-10.40751862613038Clb=5.5m/s 405.30MHz Type=RS41-SG Aux[O3] BK=Timed(083000h) RS41Tracker 1.17
EI6HKB-11T43203982022-12-07 12:00:3651.7239-10.40771973012944Clb=4.2m/s 405.30MHz Type=RS41-SG Aux[O3] BK=Timed(083000h) RS41Tracker 1.17
EI6HKB-11T43203982022-12-07 12:00:1651.725-10.40722443912840Clb=3.4m/s 405.30MHz Type=RS41-SG Aux[O3] BK=Timed(083000h) RS41Tracker 1.17
EI6HKB-11T43203982022-12-07 11:59:3451.7275-10.40492363712608Clb=3.9m/s 405.30MHz Type=RS41-SG Aux[O3] BK=Timed(083000h) RS41Tracker 1.17
EI6HKB-11T43203982022-12-07 11:58:5451.7307-10.40181963912411Clb=6.1m/s 405.30MHz Type=RS41-SG Aux[O3] BK=Timed(083000h) RS41Tracker 1.17
EI6HKB-11T43203982022-12-07 11:58:1051.7356-10.39941906112191Clb=5.6m/s 405.30MHz Type=RS41-SG Aux[O3] BK=Timed(083000h) RS41Tracker 1.17
EI6HKB-11T43203982022-12-07 11:57:1051.739-10.39973611859Clb=2.9m/s 405.30MHz Type=RS41-SG Aux[O3] BK=Timed(083000h) RS41Tracker 1.17
EI6HKB-11T43203982022-12-07 11:56:3051.7401-10.4003109911648Clb=3.5m/s 405.30MHz Type=RS41-SG Aux[O3] BK=Timed(083000h) RS41Tracker 1.17
EI6HKB-11T43203982022-12-07 11:52:4051.7562-10.38362335910450Clb=5.1m/s 405.30MHz Type=RS41-SG Aux[O3] BK=Timed(083000h) RS41Tracker 1.17
EI6HKB-11T43203982022-12-07 11:52:2051.7577-10.3812195610331Clb=5.7m/s 405.30MHz Type=RS41-SG Aux[O3] BK=Timed(083000h) RS41Tracker 1.17
EI6HKB-11T43203982022-12-07 11:50:0451.7726-10.3642219679554Clb=3.5m/s 405.30MHz Type=RS41-SG Aux[O3] BK=Timed(083000h) RS41Tracker 1.17
EI6HKB-11T43203982022-12-07 11:49:4451.7757-10.3619219549444Clb=7.2m/s 405.30MHz Type=RS41-SG Aux[O3] BK=Timed(083000h) RS41Tracker 1.17
EI6HKB-11T43203982022-12-07 11:49:0451.7811-10.3561196489210Clb=8.4m/s 405.30MHz Type=RS41-SG Aux[O3] BK=Timed(083000h) RS41Tracker 1.17
EI6HKB-11T43203982022-12-07 11:48:3851.7841-10.3539203509065Clb=5.8m/s 405.30MHz Type=RS41-SG Aux[O3] BK=Timed(083000h) RS41Tracker 1.17
EI6HKB-11T43203982022-12-07 11:47:3651.7913-10.3473195548743Clb=7.7m/s 405.30MHz Type=RS41-SG Aux[O3] BK=Timed(083000h) RS41Tracker 1.17
EI6HKB-11T43203982022-12-07 11:46:5651.7956-10.3442227568505Clb=3.8m/s 405.30MHz Type=RS41-SG Aux[O3] BK=Timed(083000h) RS41Tracker 1.17
EI6HKB-11T43203982022-12-07 11:46:3651.7986-10.3424189708395Clb=4.2m/s 405.30MHz Type=RS41-SG Aux[O3] BK=Timed(083000h) RS41Tracker 1.17
EI6HKB-11T43203982022-12-07 11:46:1651.8008-10.3402222448303Clb=3.8m/s 405.30MHz Type=RS41-SG Aux[O3] BK=Timed(083000h) RS41Tracker 1.17
EI6HKB-11T43203982022-12-07 11:44:5651.8101-10.3291223727887Clb=5.9m/s 405.30MHz Type=RS41-SG Aux[O3] BK=Timed(083000h) RS41Tracker 1.17
EI6HKB-11T43203982022-12-07 11:44:3651.8128-10.3253223657799Clb=4.5m/s 405.30MHz Type=RS41-SG Aux[O3] BK=Timed(083000h) RS41Tracker 1.17
EI6HKB-11T43203982022-12-07 11:43:3651.8212-10.3184208437501Clb=4.4m/s 405.30MHz Type=RS41-SG Aux[O3] BK=Timed(083000h) RS41Tracker 1.17
EI6HKB-11T43203982022-12-07 11:43:1651.8233-10.3164215547407Clb=4.4m/s 405.30MHz Type=RS41-SG Aux[O3] BK=Timed(083000h) RS41Tracker 1.17
EI6HKB-11T43203982022-12-07 11:42:5651.8254-10.314219487303Clb=4.7m/s 405.30MHz Type=RS41-SG Aux[O3] BK=Timed(083000h) RS41Tracker 1.17
EI6HKB-11T43203982022-12-07 11:42:3651.8272-10.3119216567205Clb=5.0m/s 405.30MHz Type=RS41-SG Aux[O3] BK=Timed(083000h) RS41Tracker 1.17
EI6HKB-11T43203982022-12-07 11:40:3651.8392-10.3027211316575Clb=5.0m/s 405.30MHz Type=RS41-SG Aux[O3] BK=Timed(083000h) RS41Tracker 1.17
EI6HKB-11T43203982022-12-07 11:39:3651.8434-10.2975219486277Clb=6.1m/s 405.30MHz Type=RS41-SG Aux[O3] BK=Timed(083000h) RS41Tracker 1.17
EI6HKB-11T43203982022-12-07 11:39:1651.8454-10.2952212576173Clb=4.7m/s 405.30MHz Type=RS41-SG Aux[O3] BK=Timed(083000h) RS41Tracker 1.17
EI6HKB-11T43203982022-12-07 11:38:5651.8481-10.2931198596077Clb=4.7m/s 405.30MHz Type=RS41-SG Aux[O3] BK=Timed(083000h) RS41Tracker 1.17
EI6HKB-11T43203982022-12-07 11:38:3251.851-10.2909206565965Clb=4.3m/s 405.30MHz Type=RS41-SG Aux[O3] BK=Timed(083000h) RS41Tracker 1.17
EI6HKB-11T43203982022-12-07 11:38:1051.8533-10.2903183375860Clb=4.7m/s 405.30MHz Type=RS41-SG Aux[O3] BK=Timed(083000h) RS41Tracker 1.17
EI6HKB-11T43203982022-12-07 11:36:2451.8637-10.284202505402Clb=4.5m/s 405.30MHz Type=RS41-SG Aux[O3] BK=Timed(083000h) RS41Tracker 1.17
EI6HKB-11T43203982022-12-07 11:35:2051.8701-10.2811205285076Clb=4.6m/s 405.30MHz Type=RS41-SG Aux[O3] BK=Timed(083000h) RS41Tracker 1.17
EI6HKB-11T43203982022-12-07 11:34:4051.8726-10.2807154194903Clb=4.2m/s 405.30MHz Type=RS41-SG Aux[O3] BK=Timed(083000h) RS41Tracker 1.17
EI6HKB-11T43203982022-12-07 11:34:2051.8744-10.2816182614791Clb=7.4m/s 405.30MHz Type=RS41-SG Aux[O3] BK=Timed(083000h) RS41Tracker 1.17
EI6HKB-11T43203982022-12-07 11:33:4051.8782-10.2833185434574Clb=4.9m/s 405.30MHz Type=RS41-SG Aux[O3] BK=Timed(083000h) RS41Tracker 1.17
EI6HKB-11T43203982022-12-07 11:30:5651.8936-10.2858183433780Clb=4.8m/s 405.30MHz Type=RS41-SG Aux[O3] BK=Timed(083000h) RS41Tracker 1.17
EI6HKB-11T43203982022-12-07 11:30:3651.8955-10.2856193283687Clb=4.3m/s 405.30MHz Type=RS41-SG Aux[O3] BK=Timed(083000h) RS41Tracker 1.17
EI6HKB-11T43203982022-12-07 11:30:1651.8967-10.2851190193599Clb=4.8m/s 405.30MHz Type=RS41-SG Aux[O3] BK=Timed(083000h) RS41Tracker 1.17
EI6HKB-11T43203982022-12-07 11:29:5651.8979-10.2845195413509Clb=4.3m/s 405.30MHz Type=RS41-SG Aux[O3] BK=Timed(083000h) RS41Tracker 1.17
EI6HKB-11T43203982022-12-07 11:29:3651.8995-10.284199193413Clb=4.2m/s 405.30MHz Type=RS41-SG Aux[O3] BK=Timed(083000h) RS41Tracker 1.17
EI6HKB-11T43203982022-12-07 11:28:5651.9011-10.2845147263240Clb=5.0m/s 405.30MHz Type=RS41-SG Aux[O3] BK=Timed(083000h) RS41Tracker 1.17
EI6HKB-11T43203982022-12-07 11:28:1651.9035-10.285120593071Clb=3.7m/s 405.30MHz Type=RS41-SG Aux[O3] BK=Timed(083000h) RS41Tracker 1.17
EI6HKB-11T43203982022-12-07 11:27:5651.904-10.2852130192993Clb=3.9m/s 405.30MHz Type=RS41-SG Aux[O3] BK=Timed(083000h) RS41Tracker 1.17
EI6HKB-11T43203982022-12-07 11:27:3651.9047-10.2855116202905Clb=4.7m/s 405.30MHz Type=RS41-SG Aux[O3] BK=Timed(083000h) RS41Tracker 1.17
EI6HKB-11T43203982022-12-07 11:27:1551.9055-10.286205222801Clb=4.4m/s 405.30MHz Type=RS41-SG Aux[O3] BK=Timed(083000h) RS41Tracker 1.17
EI6HKB-11T43203982022-12-07 11:26:5551.9062-10.2868129132712Clb=3.9m/s 405.30MHz Type=RS41-SG Aux[O3] BK=Timed(083000h) RS41Tracker 1.17
EI6HKB-11T43203982022-12-07 11:26:3551.9068-10.2879132192640Clb=3.5m/s 405.30MHz Type=RS41-SG Aux[O3] BK=Timed(083000h) RS41Tracker 1.17
EI6HKB-11T43203982022-12-07 11:26:1551.9084-10.289172392569Clb=3.0m/s 405.30MHz Type=RS41-SG Aux[O3] BK=Timed(083000h) RS41Tracker 1.17
EI6HKB-11T43203982022-12-07 11:25:5551.9103-10.2895170392503Clb=3.0m/s 405.30MHz Type=RS41-SG Aux[O3] BK=Timed(083000h) RS41Tracker 1.17
EI6HKB-11T43203982022-12-07 11:25:3551.9118-10.2896181202434Clb=4.0m/s 405.30MHz Type=RS41-SG Aux[O3] BK=Timed(083000h) RS41Tracker 1.17
EI6HKB-11T43203982022-12-07 11:25:1551.9133-10.2893184412361Clb=3.8m/s 405.30MHz Type=RS41-SG Aux[O3] BK=Timed(083000h) RS41Tracker 1.17
EI6HKB-11T43203982022-12-07 11:24:5551.9152-10.2897181412285Clb=3.9m/s 405.30MHz Type=RS41-SG Aux[O3] BK=Timed(083000h) RS41Tracker 1.17
EI6HKB-11T43203982022-12-07 11:24:3551.9171-10.2889216392193Clb=5.7m/s 405.30MHz Type=RS41-SG Aux[O3] BK=Timed(083000h) RS41Tracker 1.17
EI6HKB-11T43203982022-12-07 11:24:1451.9182-10.2874208312088Clb=5.3m/s 405.30MHz Type=RS41-SG Aux[O3] BK=Timed(083000h) RS41Tracker 1.17
EI6HKB-11T43203982022-12-07 11:23:4551.9193-10.285522661945Clb=4.7m/s 405.30MHz Type=RS41-SG Aux[O3] BK=Timed(083000h) RS41Tracker 1.17
EI6HKB-11T43203982022-12-07 11:23:2151.9203-10.2836219281827Clb=5.2m/s 405.30MHz Type=RS41-SG Aux[O3] BK=Timed(083000h) RS41Tracker 1.17